Time;durP1;ratioP1;P1;durP2;ratioP2;P2;SDS_P1;SDS_P2;PMS_P1;PMS_P2;Temp;Humidity;BMP_temperature;BMP_pressure;BME280_temperature;BME280_humidity;BME280_pressure;Samples;Min_cycle;Max_cycle;Signal;HPM_P1;HPM_P2
2021/12/31 00:02:16;;;;;;;7.57;2.43;;;;;;;5.25;93.56;94668.56;5051257;28;20118;-66
2021/12/31 00:04:42;;;;;;;7.20;2.50;;;;;;;5.24;94.14;94664.28;5052879;28;20041;-67
2021/12/31 00:07:10;;;;;;;5.40;2.15;;;;;;;5.25;94.88;94663.09;5052302;28;20049;-66
2021/12/31 00:09:37;;;;;;;7.40;2.20;;;;;;;5.29;94.59;94658.50;5051315;28;20055;-67
2021/12/31 00:12:07;;;;;;;20.17;2.60;;;;;;;5.28;94.52;94660.44;5052793;28;20041;-67
2021/12/31 00:14:35;;;;;;;8.47;2.43;;;;;;;5.27;94.59;94666.25;5051173;28;20796;-67
2021/12/31 00:17:04;;;;;;;13.55;3.22;;;;;;;5.23;93.95;94665.41;5051190;28;20055;-67
2021/12/31 00:19:33;;;;;;;18.60;3.75;;;;;;;5.21;95.47;94660.31;5051554;28;20140;-67
2021/12/31 00:22:13;;;;;;;8.07;3.15;;;;;;;5.13;95.76;94666.78;5052466;28;20047;-67
2021/12/31 00:24:40;;;;;;;19.58;3.72;;;;;;;5.16;95.92;94658.69;5050509;28;20274;-67
2021/12/31 00:27:06;;;;;;;33.57;3.30;;;;;;;4.89;95.52;94673.34;5052495;28;20041;-67
2021/12/31 00:29:33;;;;;;;46.42;5.00;;;;;;;4.75;97.07;94669.25;5050074;28;20041;-67
2021/12/31 00:32:00;;;;;;;143.00;7.65;;;;;;;4.86;97.74;94666.72;5052360;28;20044;-67
2021/12/31 00:34:26;;;;;;;119.15;5.97;;;;;;;4.84;97.43;94668.22;5051509;28;20055;-66
2021/12/31 00:36:53;;;;;;;32.20;5.35;;;;;;;4.84;97.17;94671.72;5052273;28;20049;-67
2021/12/31 00:39:20;;;;;;;36.53;5.17;;;;;;;4.85;96.50;94673.31;5050209;28;20049;-67
2021/12/31 00:41:47;;;;;;;32.55;4.15;;;;;;;4.78;96.18;94662.28;5052226;28;20512;-67
2021/12/31 00:44:14;;;;;;;179.68;6.70;;;;;;;4.78;96.61;94665.00;5050208;28;20048;-66
2021/12/31 00:46:41;;;;;;;50.53;3.60;;;;;;;4.75;96.33;94663.03;5051702;28;20098;-67
2021/12/31 00:49:08;;;;;;;28.85;3.70;;;;;;;4.74;95.67;94656.78;5052041;28;20098;-67
2021/12/31 00:51:35;;;;;;;41.37;4.33;;;;;;;4.71;97.07;94662.13;5050420;28;21503;-67
2021/12/31 00:54:02;;;;;;;88.72;5.30;;;;;;;4.40;96.95;94653.78;5052038;28;20499;-67
2021/12/31 00:56:29;;;;;;;28.38;3.95;;;;;;;4.40;97.42;94651.06;5051589;28;20480;-67
2021/12/31 00:58:55;;;;;;;46.97;4.30;;;;;;;4.38;97.99;94653.34;5051965;28;20428;-67
2021/12/31 01:01:25;;;;;;;92.80;5.63;;;;;;;4.38;97.60;94650.63;5049498;28;20171;-66
2021/12/31 01:03:52;;;;;;;59.70;4.33;;;;;;;4.37;96.59;94649.09;5051031;28;20383;-67
2021/12/31 01:06:19;;;;;;;46.35;4.13;;;;;;;4.27;97.23;94649.66;5050891;28;20045;-66
2021/12/31 01:08:46;;;;;;;66.32;4.60;;;;;;;4.11;98.61;94662.50;5050318;28;20041;-67
2021/12/31 01:11:12;;;;;;;101.35;5.05;;;;;;;4.16;98.99;94659.50;5037048;28;20045;-66
2021/12/31 01:13:54;;;;;;;32.53;3.50;;;;;;;4.27;98.32;94659.75;5043699;28;20139;-67
2021/12/31 01:16:23;;;;;;;26.03;3.17;;;;;;;4.26;98.77;94656.22;5082829;28;20055;-66
2021/12/31 01:21:21;;;;;;;11.27;2.80;;;;;;;4.30;98.31;94659.00;5050628;28;20531;-66
2021/12/31 01:23:49;;;;;;;24.30;3.20;;;;;;;4.29;97.93;94657.47;5051449;28;20045;-67
2021/12/31 01:26:16;;;;;;;15.93;2.50;;;;;;;4.24;97.41;94663.16;5050746;28;20033;-67
2021/12/31 01:28:43;;;;;;;21.07;9.67;;;;;;;4.13;96.89;94661.00;5051290;28;20055;-67
2021/12/31 01:31:10;;;;;;;19.67;4.22;;;;;;;4.13;97.13;94657.50;5050731;28;20075;-66
2021/12/31 01:33:37;;;;;;;12.27;2.42;;;;;;;4.02;97.00;94661.91;5049671;28;20090;-66
2021/12/31 01:36:05;;;;;;;9.68;2.15;;;;;;;3.72;98.55;94657.81;5051122;28;20485;-67
2021/12/31 01:38:32;;;;;;;23.63;3.00;;;;;;;3.85;98.66;94658.47;5050440;28;20401;-67
2021/12/31 01:40:59;;;;;;;68.67;4.37;;;;;;;3.91;99.14;94661.69;5051244;28;20041;-67
2021/12/31 01:43:25;;;;;;;49.28;3.25;;;;;;;3.94;99.32;94653.63;5082188;28;20052;-66
2021/12/31 01:45:55;;;;;;;79.32;4.13;;;;;;;3.92;98.66;94655.88;5051141;28;20086;-67
2021/12/31 01:48:36;;;;;;;45.15;3.22;;;;;;;3.98;98.98;94648.25;5050341;28;20053;-67
2021/12/31 01:51:03;;;;;;;24.17;2.53;;;;;;;3.93;99.17;94652.03;5050925;28;20051;-67
2021/12/31 01:53:31;;;;;;;6.27;1.87;;;;;;;4.03;99.17;94653.41;5050405;28;20040;-67
2021/12/31 01:56:00;;;;;;;32.28;2.47;;;;;;;4.07;98.43;94646.13;5050642;28;20263;-67
2021/12/31 01:58:28;;;;;;;27.23;3.28;;;;;;;4.10;99.03;94647.34;5050105;28;20041;-67
2021/12/31 02:00:55;;;;;;;20.50;3.70;;;;;;;4.18;98.63;94649.06;5050622;28;20091;-67
2021/12/31 02:03:23;;;;;;;17.45;3.42;;;;;;;4.19;98.94;94648.72;5049656;28;20040;-67
2021/12/31 02:05:50;;;;;;;35.37;3.27;;;;;;;4.24;99.13;94638.72;5050439;28;20056;-67
2021/12/31 02:08:18;;;;;;;11.50;3.30;;;;;;;4.31;98.82;94644.28;5049933;28;20049;-66
2021/12/31 02:10:49;;;;;;;18.17;2.95;;;;;;;4.33;99.02;94636.56;5048718;28;20047;-66
2021/12/31 02:13:18;;;;;;;15.20;3.03;;;;;;;4.37;99.09;94640.16;5049439;28;20037;-67
2021/12/31 02:15:45;;;;;;;11.45;3.22;;;;;;;4.38;98.35;94639.78;5049039;28;20041;-66
2021/12/31 02:18:12;;;;;;;9.20;3.10;;;;;;;4.45;98.02;94641.06;5049695;28;20105;-67
2021/12/31 02:20:44;;;;;;;13.52;3.40;;;;;;;4.54;98.81;94641.63;5032538;28;20045;-67
2021/12/31 02:23:20;;;;;;;8.75;3.17;;;;;;;4.63;98.86;94644.13;5049841;28;20421;-67
2021/12/31 02:25:47;;;;;;;10.25;3.40;;;;;;;4.62;98.40;94643.34;5049644;28;20068;-67
2021/12/31 02:28:13;;;;;;;11.52;3.53;;;;;;;4.52;97.64;94652.06;5049780;28;20040;-66
2021/12/31 02:30:40;;;;;;;18.87;3.80;;;;;;;4.60;97.82;94642.91;5049907;28;20066;-66
2021/12/31 02:33:08;;;;;;;7.45;3.58;;;;;;;4.70;98.24;94639.59;5048565;28;20048;-67
2021/12/31 02:35:37;;;;;;;15.80;4.32;;;;;;;4.78;97.39;94632.38;5048334;28;20608;-67
2021/12/31 02:38:06;;;;;;;21.35;5.45;;;;;;;4.68;97.01;94635.69;5050212;28;20056;-67
2021/12/31 02:40:34;;;;;;;24.58;6.13;;;;;;;4.67;96.90;94634.91;5047797;28;20044;-67
2021/12/31 02:43:01;;;;;;;14.67;4.73;;;;;;;4.75;97.33;94636.59;5048565;28;20059;-67
2021/12/31 02:45:31;;;;;;;18.20;5.15;;;;;;;4.76;97.15;94637.38;5049070;28;20063;-67
2021/12/31 02:48:01;;;;;;;20.65;5.72;;;;;;;4.82;96.41;94638.66;5049849;28;20478;-67
2021/12/31 02:50:33;;;;;;;12.90;4.43;;;;;;;4.77;96.63;94636.25;5049310;28;20045;-67
2021/12/31 02:53:14;;;;;;;16.00;4.50;;;;;;;4.54;97.87;94633.47;5049867;28;20047;-67
2021/12/31 02:55:43;;;;;;;12.93;4.43;;;;;;;4.76;97.19;94635.44;5048593;28;20766;-67
2021/12/31 02:58:10;;;;;;;12.25;4.20;;;;;;;4.93;96.74;94625.25;5049399;28;20094;-66
2021/12/31 03:00:41;;;;;;;11.32;3.90;;;;;;;5.06;97.43;94632.09;5049303;28;20041;-67
2021/12/31 03:03:11;;;;;;;10.30;3.92;;;;;;;5.06;96.77;94623.16;5049488;28;20051;-67
2021/12/31 03:05:40;;;;;;;9.10;4.20;;;;;;;4.75;96.94;94635.81;5047313;28;20490;-67
2021/12/31 03:08:10;;;;;;;10.70;4.70;;;;;;;4.71;98.54;94626.78;5049688;28;20041;-67
2021/12/31 03:10:38;;;;;;;9.88;5.05;;;;;;;4.65;98.36;94623.59;5048262;28;20168;-67
2021/12/31 03:13:06;;;;;;;11.43;4.97;;;;;;;4.79;98.42;94604.81;5049390;28;20033;-67
2021/12/31 03:15:33;;;;;;;8.07;4.00;;;;;;;4.78;97.83;94605.97;5047401;28;20043;-67
2021/12/31 03:18:03;;;;;;;8.30;4.10;;;;;;;5.07;98.93;94594.78;5049203;28;20518;-67
2021/12/31 03:20:36;;;;;;;7.70;4.10;;;;;;;5.21;98.13;94597.72;5048763;28;20037;-67
2021/12/31 03:23:04;;;;;;;8.40;4.03;;;;;;;5.26;98.53;94600.16;5049498;28;20103;-67
2021/12/31 03:25:32;;;;;;;8.65;4.20;;;;;;;5.28;97.52;94592.41;5048839;28;20048;-67
2021/12/31 03:27:59;;;;;;;7.85;4.00;;;;;;;5.29;97.09;94599.44;5050312;28;20037;-67
2021/12/31 03:30:26;;;;;;;8.05;4.25;;;;;;;5.40;97.55;94600.38;5050854;28;20064;-67
2021/12/31 03:32:53;;;;;;;10.30;4.00;;;;;;;5.45;97.53;94588.38;5052176;28;20505;-67
2021/12/31 03:35:20;;;;;;;15.88;4.90;;;;;;;5.54;96.87;94597.09;5049864;28;20048;-67
2021/12/31 03:37:47;;;;;;;12.18;4.80;;;;;;;5.49;96.58;94585.72;5049592;28;20037;-67
2021/12/31 03:40:14;;;;;;;13.75;5.75;;;;;;;5.60;97.05;94587.44;5048765;28;20059;-66
2021/12/31 03:42:42;;;;;;;62.38;12.95;;;;;;;5.47;95.86;94580.63;5049583;28;20470;-68
2021/12/31 03:45:10;;;;;;;41.80;9.03;;;;;;;5.47;96.83;94574.41;5043815;28;20048;-65
2021/12/31 03:47:37;;;;;;;19.05;6.03;;;;;;;5.49;97.08;94569.38;5037701;28;20065;-69
2021/12/31 03:50:04;;;;;;;8.57;4.22;;;;;;;5.54;95.74;94566.38;5049314;28;20052;-67
2021/12/31 03:52:31;;;;;;;9.38;4.28;;;;;;;5.63;96.52;94568.81;5048434;28;20047;-67
2021/12/31 03:54:57;;;;;;;13.48;5.10;;;;;;;5.59;95.89;94558.66;5049310;28;20037;-67
2021/12/31 03:57:24;;;;;;;16.73;5.20;;;;;;;5.60;96.33;94564.91;5048731;28;20044;-67
2021/12/31 03:59:51;;;;;;;17.92;5.22;;;;;;;5.59;95.52;94560.59;5047296;28;20055;-67
2021/12/31 04:02:18;;;;;;;14.88;4.80;;;;;;;5.79;97.01;94551.16;5047078;28;20252;-67
2021/12/31 04:04:45;;;;;;;11.13;4.20;;;;;;;5.88;96.76;94552.81;5048546;28;20045;-67
2021/12/31 04:07:11;;;;;;;15.68;5.10;;;;;;;5.90;96.61;94553.25;5047252;28;20094;-66
2021/12/31 04:09:38;;;;;;;10.73;3.77;;;;;;;5.94;96.94;94546.66;5048544;28;20051;-67
2021/12/31 04:12:05;;;;;;;8.48;3.67;;;;;;;5.94;96.51;94551.34;5049182;28;20047;-67
2021/12/31 04:14:32;;;;;;;22.88;7.00;;;;;;;5.83;95.30;94545.75;5047895;28;20417;-67
2021/12/31 04:16:59;;;;;;;24.58;7.82;;;;;;;5.80;96.06;94538.31;5048788;28;20075;-67
2021/12/31 04:19:26;;;;;;;18.75;6.90;;;;;;;5.82;96.29;94537.97;5048443;28;20037;-67
2021/12/31 04:21:52;;;;;;;10.60;4.00;;;;;;;5.64;96.63;94537.72;5048814;28;20041;-67
2021/12/31 04:24:50;;;;;;;12.82;5.00;;;;;;;5.75;97.20;94544.84;5048474;28;20049;-67
2021/12/31 04:27:14;;;;;;;18.90;6.40;;;;;;;5.87;96.88;94540.34;5048323;28;20037;-67
2021/12/31 04:29:47;;;;;;;18.88;7.60;;;;;;;5.97;96.97;94532.31;5048485;28;20064;-67
2021/12/31 04:32:14;;;;;;;12.63;6.00;;;;;;;5.99;96.51;94531.97;5048372;28;20055;-66
2021/12/31 04:34:40;;;;;;;11.80;5.03;;;;;;;5.84;96.88;94525.53;5048415;28;20049;-67
2021/12/31 04:37:07;;;;;;;13.05;5.55;;;;;;;5.82;97.60;94525.13;5048742;28;20083;-67
2021/12/31 04:39:34;;;;;;;20.65;7.57;;;;;;;5.99;97.87;94523.78;5048484;28;20032;-67
2021/12/31 04:42:02;;;;;;;15.32;6.22;;;;;;;6.05;97.92;94513.34;5052085;28;20045;-67
2021/12/31 04:44:29;;;;;;;16.40;6.40;;;;;;;6.11;97.79;94509.91;5051101;28;20040;-67
2021/12/31 04:46:55;;;;;;;9.73;4.10;;;;;;;6.19;98.34;94516.22;5034434;28;20046;-67
2021/12/31 04:49:22;;;;;;;8.80;3.90;;;;;;;6.27;98.09;94515.16;5049070;28;20067;-67
2021/12/31 04:51:49;;;;;;;7.85;4.25;;;;;;;6.37;98.54;94513.69;5051801;28;20037;-67
2021/12/31 04:54:16;;;;;;;18.58;8.02;;;;;;;6.43;99.14;94516.88;5050297;28;20049;-67
2021/12/31 04:56:43;;;;;;;15.40;6.88;;;;;;;6.24;99.62;94521.38;5051656;28;20110;-67
2021/12/31 04:59:11;;;;;;;12.77;6.10;;;;;;;6.33;100.00;94535.47;5051676;28;20037;-66
2021/12/31 05:01:38;;;;;;;9.75;4.80;;;;;;;6.24;99.93;94540.44;5033881;28;20037;-67
2021/12/31 05:04:05;;;;;;;9.52;4.70;;;;;;;6.29;100.00;94534.63;5051696;28;20037;-67
2021/12/31 05:06:32;;;;;;;10.55;4.68;;;;;;;6.31;100.00;94537.00;5051199;28;20041;-67
2021/12/31 05:08:59;;;;;;;10.00;5.00;;;;;;;6.48;100.00;94527.44;5050498;28;20049;-67
2021/12/31 05:11:26;;;;;;;16.10;5.60;;;;;;;6.66;100.00;94525.69;5051059;28;20061;-67
2021/12/31 05:13:53;;;;;;;9.75;4.10;;;;;;;6.64;99.71;94528.00;5051207;28;20118;-67
2021/12/31 05:16:19;;;;;;;11.88;5.78;;;;;;;6.68;100.00;94528.81;5051226;28;20044;-67
2021/12/31 05:18:46;;;;;;;9.90;5.50;;;;;;;6.73;100.00;94517.56;5051318;28;20045;-67
2021/12/31 05:21:13;;;;;;;10.60;5.28;;;;;;;6.77;99.63;94523.03;5050902;28;20415;-67
2021/12/31 05:23:40;;;;;;;11.40;5.60;;;;;;;6.88;99.58;94509.50;5050671;28;20036;-67
2021/12/31 05:26:07;;;;;;;14.48;7.43;;;;;;;6.98;100.00;94515.06;5051075;28;20248;-67
2021/12/31 05:28:33;;;;;;;15.05;7.55;;;;;;;7.06;100.00;94523.28;5050685;28;20044;-67
2021/12/31 05:31:00;;;;;;;14.07;6.80;;;;;;;7.08;100.00;94519.00;5051686;28;20047;-68
2021/12/31 05:33:27;;;;;;;15.05;7.05;;;;;;;7.04;100.00;94520.91;5050711;28;20448;-67
2021/12/31 05:35:56;;;;;;;16.77;7.90;;;;;;;7.12;100.00;94519.84;5051183;28;20064;-68
2021/12/31 05:38:23;;;;;;;18.02;7.95;;;;;;;7.15;100.00;94524.53;5050498;28;20041;-67
2021/12/31 05:40:50;;;;;;;19.35;9.63;;;;;;;7.20;99.79;94532.38;5049279;28;20045;-67
2021/12/31 05:43:17;;;;;;;22.75;11.50;;;;;;;7.19;100.00;94530.03;5050376;28;20041;-67
2021/12/31 05:45:44;;;;;;;22.77;11.20;;;;;;;7.39;100.00;94533.28;5043597;28;20099;-67
2021/12/31 05:48:23;;;;;;;19.53;10.00;;;;;;;7.44;100.00;94529.41;5039764;28;20037;-67
2021/12/31 05:50:51;;;;;;;17.80;8.88;;;;;;;7.35;100.00;94532.47;5050663;28;20074;-67
2021/12/31 05:53:17;;;;;;;20.50;9.07;;;;;;;7.36;100.00;94528.56;5050346;28;20041;-67
2021/12/31 05:55:44;;;;;;;18.25;8.55;;;;;;;7.51;100.00;94527.50;5050682;28;20041;-67
2021/12/31 05:58:11;;;;;;;18.50;9.13;;;;;;;7.60;100.00;94533.41;5049980;28;20041;-67
2021/12/31 06:00:38;;;;;;;17.57;7.90;;;;;;;7.64;100.00;94529.91;5050430;28;20505;-67
2021/12/31 06:03:05;;;;;;;17.30;8.23;;;;;;;7.72;100.00;94537.75;5050251;28;20041;-67
2021/12/31 06:05:32;;;;;;;16.08;8.07;;;;;;;7.76;100.00;94543.25;5050361;28;20554;-67
2021/12/31 06:07:59;;;;;;;19.08;9.07;;;;;;;7.82;100.00;94536.25;5050600;28;20439;-67
2021/12/31 06:10:26;;;;;;;16.65;8.15;;;;;;;7.90;100.00;94546.06;5050142;28;20041;-67
2021/12/31 06:12:58;;;;;;;16.60;8.30;;;;;;;7.84;100.00;94541.34;5050229;28;20110;-67
2021/12/31 06:15:27;;;;;;;15.95;7.93;;;;;;;7.91;100.00;94544.91;5081997;28;20049;-67
2021/12/31 06:17:54;;;;;;;17.65;8.70;;;;;;;7.83;100.00;94542.50;5050176;28;20051;-67
2021/12/31 06:20:21;;;;;;;14.95;8.15;;;;;;;7.84;100.00;94544.84;5050001;28;20528;-68
2021/12/31 06:22:48;;;;;;;17.05;8.45;;;;;;;7.77;100.00;94534.69;5050174;28;20378;-67
2021/12/31 06:25:14;;;;;;;18.40;8.67;;;;;;;7.87;100.00;94535.91;5049658;28;20037;-67
2021/12/31 06:27:41;;;;;;;18.80;9.32;;;;;;;7.89;100.00;94541.00;5050017;28;20043;-67
2021/12/31 06:30:09;;;;;;;38.97;19.75;;;;;;;7.90;100.00;94546.06;5049165;28;20044;-67
2021/12/31 06:32:35;;;;;;;18.60;8.82;;;;;;;7.90;100.00;94551.53;5048882;28;20321;-67
2021/12/31 06:35:02;;;;;;;14.75;7.78;;;;;;;7.88;100.00;94545.66;5048920;28;20378;-68
2021/12/31 06:37:29;;;;;;;16.50;8.60;;;;;;;7.88;100.00;94544.88;5049756;28;20185;-68
2021/12/31 06:40:01;;;;;;;16.77;8.73;;;;;;;7.85;100.00;94542.91;5048383;28;20057;-67
2021/12/31 06:42:27;;;;;;;19.92;10.48;;;;;;;7.82;100.00;94539.00;5048431;28;20045;-68
2021/12/31 06:44:54;;;;;;;18.45;9.57;;;;;;;7.84;100.00;94544.84;5049734;28;20048;-68
2021/12/31 06:47:21;;;;;;;22.85;12.80;;;;;;;7.86;100.00;94550.72;5048079;28;20502;-68
2021/12/31 06:49:48;;;;;;;17.80;8.90;;;;;;;7.84;100.00;94549.53;5049803;28;20037;-67
2021/12/31 06:52:15;;;;;;;23.08;14.50;;;;;;;7.82;100.00;94546.41;5048110;28;20098;-67
2021/12/31 06:54:41;;;;;;;35.50;19.40;;;;;;;7.82;100.00;94541.72;5048111;28;20076;-67
2021/12/31 06:57:08;;;;;;;21.95;12.52;;;;;;;7.84;100.00;94541.34;5049993;28;20037;-67
2021/12/31 06:59:35;;;;;;;17.80;9.15;;;;;;;7.85;100.00;94549.16;5048837;28;20648;-68
2021/12/31 07:02:02;;;;;;;15.70;8.37;;;;;;;7.85;100.00;94551.91;5046436;28;20045;-67
2021/12/31 07:04:29;;;;;;;17.88;9.00;;;;;;;7.86;100.00;94547.22;5029964;28;23538;-67
2021/12/31 07:06:56;;;;;;;23.63;12.50;;;;;;;7.89;100.00;94541.78;5080705;28;20152;-67
2021/12/31 07:09:29;;;;;;;17.15;9.13;;;;;;;7.92;100.00;94549.19;5049142;28;20041;-67
2021/12/31 07:11:56;;;;;;;22.60;12.43;;;;;;;7.92;100.00;94551.94;5047178;28;20393;-67
2021/12/31 07:14:23;;;;;;;24.53;13.67;;;;;;;7.98;100.00;94550.38;5048912;28;20083;-67
2021/12/31 07:16:50;;;;;;;24.92;14.30;;;;;;;8.02;100.00;94553.16;5049194;28;20452;-67
2021/12/31 07:19:17;;;;;;;24.38;13.75;;;;;;;7.97;100.00;94554.31;5048047;28;20037;-67
2021/12/31 07:21:44;;;;;;;21.13;11.95;;;;;;;7.97;100.00;94559.78;5049437;28;20041;-67
2021/12/31 07:24:11;;;;;;;29.67;18.38;;;;;;;7.97;100.00;94557.03;5049069;28;20048;-67
2021/12/31 07:26:37;;;;;;;25.23;14.40;;;;;;;8.01;100.00;94559.78;5049409;28;20044;-67
2021/12/31 07:29:04;;;;;;;21.95;12.32;;;;;;;7.99;100.00;94564.88;5049120;28;20060;-67
2021/12/31 07:31:31;;;;;;;20.60;11.13;;;;;;;8.01;100.00;94570.72;5049135;28;20064;-68
2021/12/31 07:33:58;;;;;;;20.92;10.90;;;;;;;8.00;100.00;94559.00;5049457;28;20579;-67
2021/12/31 07:36:27;;;;;;;21.67;13.07;;;;;;;8.06;99.89;94561.38;5049089;28;20064;-67
2021/12/31 07:39:04;;;;;;;20.90;12.33;;;;;;;8.00;99.82;94556.25;5048184;28;20043;-68
2021/12/31 07:41:31;;;;;;;20.17;12.38;;;;;;;8.00;100.00;94559.00;5047499;28;20049;-67
2021/12/31 07:43:59;;;;;;;19.83;10.25;;;;;;;8.03;100.00;94551.19;5047761;28;20041;-67
2021/12/31 07:46:25;;;;;;;17.65;9.30;;;;;;;8.00;100.00;94544.56;5048707;28;20053;-68
2021/12/31 07:48:52;;;;;;;16.52;9.75;;;;;;;8.06;100.00;94545.75;5049067;28;20045;-67
2021/12/31 07:51:19;;;;;;;19.00;10.63;;;;;;;8.00;99.15;94553.53;5048663;28;20045;-67
2021/12/31 07:53:46;;;;;;;17.27;9.40;;;;;;;7.98;100.00;94560.56;5049085;28;20090;-67
2021/12/31 07:56:14;;;;;;;20.00;12.02;;;;;;;7.96;99.18;94555.47;5048985;28;20049;-67
2021/12/31 07:58:40;;;;;;;14.70;8.98;;;;;;;7.96;99.10;94555.47;5049747;28;20490;-68
2021/12/31 08:01:07;;;;;;;16.77;8.95;;;;;;;7.99;99.07;94559.41;5049509;28;20397;-68
2021/12/31 08:03:35;;;;;;;15.77;8.27;;;;;;;8.01;98.31;94559.78;5046804;28;20853;-67
2021/12/31 08:06:02;;;;;;;15.50;8.27;;;;;;;8.09;98.56;94557.84;5048819;28;20048;-67
2021/12/31 08:08:28;;;;;;;34.05;21.40;;;;;;;8.14;98.08;94557.50;5048628;28;20492;-67
2021/12/31 08:10:55;;;;;;;18.13;10.82;;;;;;;8.12;97.92;94562.56;5048809;28;20508;-67
2021/12/31 08:13:25;;;;;;;16.75;9.60;;;;;;;8.06;98.37;94556.69;5047565;28;20041;-67
2021/12/31 08:15:52;;;;;;;16.73;9.60;;;;;;;8.05;97.94;94566.06;5052788;28;20056;-67
2021/12/31 08:18:19;;;;;;;14.50;8.20;;;;;;;8.04;97.58;94563.72;5051972;28;20041;-67
2021/12/31 08:20:46;;;;;;;21.67;11.73;;;;;;;8.04;98.69;94567.22;5051081;28;20041;-67
2021/12/31 08:23:13;;;;;;;19.17;10.88;;;;;;;8.06;98.17;94561.38;5052223;28;20060;-67
2021/12/31 08:25:41;;;;;;;22.30;12.55;;;;;;;8.04;98.34;94556.28;5052373;28;20033;-67
2021/12/31 08:28:09;;;;;;;27.27;15.00;;;;;;;8.15;98.61;94559.09;5052937;28;20390;-67
2021/12/31 08:30:36;;;;;;;18.05;10.30;;;;;;;8.25;98.36;94560.28;5050623;28;20606;-67
2021/12/31 08:33:03;;;;;;;19.63;10.20;;;;;;;8.12;97.48;94557.09;5041785;28;20060;-67
2021/12/31 08:35:30;;;;;;;17.60;9.80;;;;;;;8.03;97.79;94556.66;5030655;28;20060;-67
2021/12/31 08:37:57;;;;;;;20.10;11.07;;;;;;;8.09;97.74;94560.59;5032098;28;20041;-67
2021/12/31 08:40:24;;;;;;;15.93;8.90;;;;;;;8.16;96.38;94552.44;5031736;28;20060;-67
2021/12/31 08:42:52;;;;;;;15.18;8.60;;;;;;;8.11;96.94;94555.53;5031890;28;20041;-67
2021/12/31 08:45:21;;;;;;;17.48;10.25;;;;;;;8.05;97.05;94555.13;5031600;28;20057;-67
2021/12/31 08:47:48;;;;;;;16.20;9.30;;;;;;;8.18;96.57;94561.03;5047215;28;20034;-67
2021/12/31 08:50:14;;;;;;;15.88;8.55;;;;;;;8.16;96.08;94550.47;5031552;28;20071;-67
2021/12/31 08:52:41;;;;;;;29.03;14.40;;;;;;;8.19;95.92;94552.47;5030969;28;20037;-67
2021/12/31 08:55:11;;;;;;;32.53;16.63;;;;;;;8.22;96.81;94547.38;5031783;28;20045;-67
2021/12/31 08:57:37;;;;;;;34.90;16.30;;;;;;;8.23;96.63;94552.47;5031092;28;20429;-68
2021/12/31 09:00:06;;;;;;;31.17;15.50;;;;;;;8.14;96.31;94555.53;5031931;28;20043;-67
2021/12/31 09:02:35;;;;;;;26.38;13.60;;;;;;;8.23;96.61;94552.47;5031586;28;20045;-67
2021/12/31 09:05:03;;;;;;;21.30;11.17;;;;;;;8.24;96.39;94558.72;5031985;28;20440;-67
2021/12/31 09:07:30;;;;;;;25.60;12.77;;;;;;;8.27;96.10;94564.22;5050922;28;20557;-67
2021/12/31 09:09:57;;;;;;;32.20;14.82;;;;;;;8.24;96.03;94562.22;5051315;28;20048;-67
2021/12/31 09:12:24;;;;;;;14.07;8.10;;;;;;;8.35;95.14;94565.00;5051020;28;20041;-67
2021/12/31 09:14:51;;;;;;;12.80;7.93;;;;;;;8.23;95.51;94559.88;5051812;28;20044;-67
2021/12/31 09:17:18;;;;;;;15.70;9.17;;;;;;;8.28;95.35;94562.25;5049987;28;20041;-68
2021/12/31 09:19:44;;;;;;;19.15;10.50;;;;;;;8.28;94.75;94568.50;5050453;28;20055;-68
2021/12/31 09:22:11;;;;;;;16.83;9.85;;;;;;;8.37;94.66;94579.88;5049777;28;20029;-67
2021/12/31 09:24:38;;;;;;;19.42;9.43;;;;;;;8.50;93.86;94585.78;5050815;28;20041;-67
2021/12/31 09:27:04;;;;;;;15.80;8.63;;;;;;;8.66;93.47;94585.47;5051373;28;20401;-68
2021/12/31 09:29:31;;;;;;;16.77;8.90;;;;;;;8.79;92.09;94594.88;5083470;28;20040;-67
2021/12/31 09:31:58;;;;;;;18.63;9.82;;;;;;;8.99;91.79;94600.78;5040660;28;20045;-67
2021/12/31 09:34:25;;;;;;;14.73;8.10;;;;;;;8.94;90.96;94611.34;5039883;28;20048;-67
2021/12/31 09:36:52;;;;;;;17.67;9.13;;;;;;;9.12;90.94;94609.41;5051269;28;20033;-67
2021/12/31 09:39:19;;;;;;;10.95;6.85;;;;;;;8.84;90.19;94609.38;5049671;28;20048;-67
2021/12/31 09:41:45;;;;;;;11.37;7.20;;;;;;;8.91;90.94;94601.94;5051108;28;20033;-67
2021/12/31 09:44:15;;;;;;;12.32;7.78;;;;;;;9.01;90.29;94605.84;5050608;28;20041;-67
2021/12/31 09:46:42;;;;;;;11.75;7.47;;;;;;;9.04;90.43;94607.06;5051320;28;20051;-68
2021/12/31 09:49:09;;;;;;;10.13;6.80;;;;;;;8.97;89.67;94600.41;5050417;28;20049;-66
2021/12/31 09:51:42;;;;;;;9.95;6.68;;;;;;;10.00;87.52;94596.06;5051277;28;20093;-67
2021/12/31 09:54:11;;;;;;;11.07;6.83;;;;;;;11.00;81.84;94588.63;5050493;28;20044;-64
2021/12/31 09:56:40;;;;;;;13.45;8.38;;;;;;;11.66;79.25;94590.50;5050850;28;20059;-67
2021/12/31 09:59:08;;;;;;;8.88;5.93;;;;;;;13.32;72.67;94595.72;5050429;28;20040;-68
2021/12/31 10:01:49;;;;;;;6.50;4.60;;;;;;;12.54;72.60;94595.53;5049904;28;21591;-68
2021/12/31 10:04:16;;;;;;;10.82;5.90;;;;;;;12.82;72.82;94601.91;5049982;28;20045;-67
2021/12/31 10:07:05;;;;;;;7.30;4.70;;;;;;;12.24;73.63;94604.53;5050523;28;20101;-68
2021/12/31 10:09:36;;;;;;;12.07;5.22;;;;;;;12.86;73.27;94604.59;5082026;28;20052;-68
2021/12/31 10:12:08;;;;;;;6.97;4.60;;;;;;;12.64;71.51;94610.38;5050447;28;20102;-68
2021/12/31 10:14:36;;;;;;;7.70;5.30;;;;;;;12.90;71.04;94610.84;5049589;28;20686;-68
2021/12/31 10:17:05;;;;;;;7.88;5.30;;;;;;;11.98;73.16;94597.72;5050044;28;20154;-68
2021/12/31 10:19:32;;;;;;;7.10;4.87;;;;;;;11.59;74.23;94598.84;5048916;28;20041;-67
2021/12/31 10:21:59;;;;;;;9.00;6.22;;;;;;;10.91;77.84;94593.81;5050032;28;20462;-67
2021/12/31 10:24:38;;;;;;;7.03;4.93;;;;;;;11.07;77.47;94605.09;5049308;28;20049;-67
2021/12/31 10:27:12;;;;;;;14.98;8.60;;;;;;;11.12;77.96;94601.91;5050148;28;20045;-67
2021/12/31 10:29:54;;;;;;;9.45;5.63;;;;;;;11.73;75.91;94589.66;5081871;28;20055;-67
2021/12/31 10:32:23;;;;;;;11.10;5.80;;;;;;;11.65;75.40;94591.72;5038033;28;20249;-67
2021/12/31 10:34:50;;;;;;;7.32;5.03;;;;;;;11.54;75.02;94582.75;5042419;28;20041;-68
2021/12/31 10:37:20;;;;;;;7.20;5.10;;;;;;;11.44;75.71;94584.41;5048846;28;20063;-67
2021/12/31 10:40:25;;;;;;;6.68;4.75;;;;;;;13.02;69.64;94587.44;5049890;28;20059;-68
2021/12/31 10:43:17;;;;;;;6.00;4.40;;;;;;;14.73;65.33;94583.03;5030707;28;20045;-68
2021/12/31 10:46:08;;;;;;;6.90;4.50;;;;;;;16.17;58.09;94577.72;5049021;28;20383;-68
2021/12/31 10:48:46;;;;;;;5.30;4.10;;;;;;;15.91;58.30;94574.03;5048887;28;20595;-68
2021/12/31 10:51:15;;;;;;;5.95;4.53;;;;;;;13.85;64.13;94568.47;5049311;28;20045;-68
2021/12/31 10:53:50;;;;;;;6.35;4.28;;;;;;;14.60;62.36;94562.78;5049995;28;20044;-68
2021/12/31 10:56:17;;;;;;;6.88;5.00;;;;;;;13.47;66.53;94568.69;5049312;28;20055;-68
2021/12/31 10:58:46;;;;;;;12.13;7.20;;;;;;;15.14;61.03;94559.66;5049836;28;20044;-68
2021/12/31 11:01:16;;;;;;;9.82;6.22;;;;;;;13.86;64.94;94560.97;5049293;28;20033;-68
2021/12/31 11:03:43;;;;;;;8.00;6.05;;;;;;;15.03;61.33;94570.16;5049761;28;20101;-69
2021/12/31 11:06:13;;;;;;;7.95;5.20;;;;;;;15.84;58.33;94561.16;5049568;28;20048;-68
2021/12/31 11:08:49;;;;;;;8.35;5.60;;;;;;;16.61;55.64;94557.94;5048777;28;20051;-68
2021/12/31 11:11:19;;;;;;;6.60;4.57;;;;;;;15.98;57.37;94546.19;5081879;28;20090;-69
2021/12/31 11:13:45;;;;;;;7.88;5.22;;;;;;;18.01;53.09;94553.69;5049732;28;20163;-69
2021/12/31 11:16:14;;;;;;;6.22;4.50;;;;;;;19.16;50.19;94544.81;5049227;28;20486;-68
2021/12/31 11:18:41;;;;;;;6.95;4.97;;;;;;;19.34;48.57;94547.69;5049696;28;20037;-69
2021/12/31 11:21:09;;;;;;;9.48;7.65;;;;;;;18.40;49.54;94557.13;5049430;28;20092;-69
2021/12/31 11:23:40;;;;;;;5.60;4.53;;;;;;;19.39;47.55;94559.47;5047978;28;20037;-69
2021/12/31 11:26:13;;;;;;;7.93;5.78;;;;;;;19.22;48.25;94559.69;5047677;28;20052;-69
2021/12/31 11:28:44;;;;;;;5.15;4.38;;;;;;;19.01;48.49;94560.50;5048462;28;20037;-69
2021/12/31 11:31:20;;;;;;;6.72;4.45;;;;;;;20.26;45.13;94557.53;5046352;28;20041;-69
2021/12/31 11:34:10;;;;;;;7.00;4.75;;;;;;;19.99;45.55;94544.34;5031444;28;20056;-69
2021/12/31 11:36:40;;;;;;;11.37;6.20;;;;;;;20.43;44.74;94547.63;5028539;28;20495;-69
2021/12/31 11:39:23;;;;;;;10.02;5.78;;;;;;;22.16;41.22;94539.69;5029061;28;20049;-69
2021/12/31 11:41:53;;;;;;;11.48;6.22;;;;;;;20.63;43.14;94530.47;5028699;28;20661;-69